Time;durP1;ratioP1;P1;durP2;ratioP2;P2;SDS_P1;SDS_P2;PMS_P1;PMS_P2;Temp;Humidity;BMP_temperature;BMP_pressure;BME280_temperature;BME280_humidity;BME280_pressure;Samples;Min_cycle;Max_cycle;Signal;HPM_P1;HPM_P2
2021/08/12 00:01:41;;;;;;;;;48.25;41.00;;;;;26.94;69.39;100666.22;4955936;28;8957;-73
2021/08/12 00:04:37;;;;;;;;;54.75;45.00;;;;;26.78;69.09;100664.19;4955080;28;8881;-73
2021/08/12 00:07:04;;;;;;;;;56.50;46.25;;;;;26.60;69.35;100675.16;4956689;28;8853;-73
2021/08/12 00:10:00;;;;;;;;;54.00;44.25;;;;;26.54;69.84;100674.09;4954901;28;8865;-72
2021/08/12 00:12:55;;;;;;;;;56.00;45.25;;;;;26.50;70.17;100667.69;4954727;28;8849;-74
2021/08/12 00:15:51;;;;;;;;;51.25;43.25;;;;;26.60;71.06;100675.16;4947764;28;8884;-74
2021/08/12 00:18:52;;;;;;;;;51.50;41.25;;;;;26.59;70.39;100676.38;4954558;28;8875;-74
2021/08/12 00:21:48;;;;;;;;;56.75;47.00;;;;;26.47;71.30;100674.25;4937101;29;8863;-73
2021/08/12 00:24:36;;;;;;;;;54.50;43.25;;;;;26.49;70.93;100677.44;4936396;29;8883;-73
2021/08/12 00:27:04;;;;;;;;;54.25;44.50;;;;;26.54;71.12;100682.59;4919624;29;8879;-73
2021/08/12 00:29:59;;;;;;;;;54.75;45.50;;;;;26.51;70.77;100684.25;4952640;28;8862;-74
2021/08/12 00:32:55;;;;;;;;;60.00;48.00;;;;;26.39;70.17;100684.16;4975275;28;8880;-74
2021/08/12 00:35:52;;;;;;;;;58.00;47.25;;;;;26.34;69.52;100691.91;4973965;28;8881;-74
2021/08/12 00:38:48;;;;;;;;;64.50;50.50;;;;;26.40;69.30;100688.59;4974412;28;8888;-73
2021/08/12 00:41:16;;;;;;;;;62.50;50.75;;;;;26.45;68.72;100686.03;4955529;28;8871;-73
2021/08/12 00:44:11;;;;;;;;;71.25;57.75;;;;;26.44;68.65;100678.75;4955452;28;8886;-74
2021/08/12 00:47:07;;;;;;;;;72.50;62.25;;;;;26.43;68.19;100691.34;4955576;28;8844;-73
2021/08/12 00:50:03;;;;;;;;;69.50;57.75;;;;;26.38;68.49;100688.19;4955415;28;8856;-75
2021/08/12 00:52:58;;;;;;;;;61.25;50.25;;;;;26.27;69.17;100683.56;4954233;28;9005;-74
2021/08/12 00:55:54;;;;;;;;;59.25;48.25;;;;;26.37;67.86;100678.88;4955182;28;8880;-74
2021/08/12 00:58:50;;;;;;;;;60.75;48.75;;;;;26.53;69.11;100678.16;4955375;28;8856;-74
2021/08/12 01:01:32;;;;;;;;;58.25;47.25;;;;;26.63;68.83;100682.00;4955796;28;8958;-74
2021/08/12 01:04:27;;;;;;;;;57.75;47.00;;;;;26.66;67.75;100681.09;4955251;28;9074;-74
2021/08/12 01:07:26;;;;;;;;;58.00;47.75;;;;;26.62;68.04;100686.06;4954888;28;8860;-74
2021/08/12 01:10:26;;;;;;;;;55.75;45.00;;;;;26.60;68.43;100675.94;4955562;28;8859;-74
2021/08/12 01:13:16;;;;;;;;;61.25;48.75;;;;;26.49;67.81;100678.25;4955297;28;8894;-74
2021/08/12 01:16:14;;;;;;;;;55.25;46.00;;;;;26.49;67.31;100671.78;4954634;28;8887;-74
2021/08/12 01:19:40;;;;;;;;;58.75;47.50;;;;;26.47;67.95;100680.72;4955263;28;8870;-74
2021/08/12 01:22:44;;;;;;;;;55.00;45.00;;;;;26.55;68.80;100675.69;4954676;28;8864;-74
2021/08/12 01:25:33;;;;;;;;;60.25;48.50;;;;;26.47;67.94;100679.94;4954177;28;8927;-74
2021/08/12 01:28:35;;;;;;;;;57.50;47.25;;;;;26.39;67.70;100678.50;4955091;28;8870;-74
2021/08/12 01:31:41;;;;;;;;;54.50;43.50;;;;;26.50;68.65;100674.16;4936401;29;8851;-73
2021/08/12 01:35:00;;;;;;;;;57.50;46.50;;;;;26.53;68.45;100673.31;4936764;28;9659;-73
2021/08/12 01:37:36;;;;;;;;;55.50;45.50;;;;;26.51;68.40;100675.75;4936121;29;8861;-73
2021/08/12 01:40:35;;;;;;;;;56.25;46.75;;;;;26.45;68.37;100671.03;4939443;28;8869;-73
2021/08/12 01:43:31;;;;;;;;;52.00;42.00;;;;;26.47;68.67;100663.72;4931359;29;8867;-72
2021/08/12 01:46:00;;;;;;;;;55.25;45.00;;;;;26.46;68.75;100684.00;4939300;29;8907;-73
2021/08/12 01:48:42;;;;;;;;;57.50;46.50;;;;;26.38;68.95;100682.53;4939115;29;8873;-73
2021/08/12 01:51:38;;;;;;;;;56.75;46.75;;;;;26.45;68.59;100677.50;4939175;29;8847;-73
2021/08/12 01:54:37;;;;;;;;;54.00;44.50;;;;;26.48;69.15;100675.84;4938994;29;8868;-73
2021/08/12 01:57:05;;;;;;;;;59.50;47.00;;;;;26.45;69.20;100679.56;4939332;29;8908;-72
2021/08/12 02:00:04;;;;;;;;;55.75;43.50;;;;;26.33;69.89;100678.97;4939861;29;8863;-75
2021/08/12 02:02:34;;;;;;;;;57.00;46.50;;;;;26.41;69.34;100679.66;4939725;29;8883;-75
2021/08/12 02:05:30;;;;;;;;;51.50;41.00;;;;;26.33;68.72;100693.16;4939317;29;8861;-73
2021/08/12 02:08:26;;;;;;;;;48.75;40.50;;;;;26.21;68.68;100699.50;4937988;29;9615;-74
2021/08/12 02:11:21;;;;;;;;;52.00;44.00;;;;;26.29;69.45;100698.09;4937878;29;8877;-74
2021/08/12 02:14:17;;;;;;;;;61.00;48.75;;;;;26.26;69.06;100692.53;4938410;29;8850;-73
2021/08/12 02:17:12;;;;;;;;;55.75;45.75;;;;;26.30;69.13;100701.72;4939188;29;8841;-73
2021/08/12 02:20:11;;;;;;;;;65.50;51.00;;;;;26.21;69.40;100699.50;4938363;29;8841;-73
2021/08/12 02:23:14;;;;;;;;;54.75;44.25;;;;;26.27;69.73;100700.56;4938401;29;8852;-74
2021/08/12 02:26:12;;;;;;;;;60.25;48.00;;;;;26.21;69.81;100704.38;4936596;29;8862;-74
2021/08/12 02:29:12;;;;;;;;;56.50;46.00;;;;;26.27;69.53;100708.28;4940112;28;9754;-73
2021/08/12 02:31:45;;;;;;;;;53.00;43.50;;;;;26.18;69.75;100706.03;4958440;28;8961;-73
2021/08/12 02:34:44;;;;;;;;;57.00;44.50;;;;;26.21;70.16;100704.38;4956435;28;8882;-73
2021/08/12 02:37:42;;;;;;;;;55.00;44.75;;;;;26.18;70.19;100708.88;4957057;28;8827;-73
2021/08/12 02:40:40;;;;;;;;;50.25;41.75;;;;;26.03;70.25;100710.41;4956635;28;9057;-72
2021/08/12 02:43:38;;;;;;;;;50.00;42.50;;;;;26.29;69.92;100717.13;4956438;28;8868;-73
2021/08/12 02:46:37;;;;;;;;;49.25;41.00;;;;;26.18;70.31;100731.56;4957876;28;8946;-73
2021/08/12 02:49:38;;;;;;;;;52.00;42.75;;;;;26.20;70.10;100731.13;4957551;28;8848;-73
2021/08/12 02:52:35;;;;;;;;;45.50;38.50;;;;;26.23;70.15;100730.25;4957914;28;8956;-74
2021/08/12 02:55:32;;;;;;;;;46.50;38.50;;;;;26.15;70.01;100729.59;4957027;28;9607;-73
2021/08/12 02:58:01;;;;;;;;;44.40;38.00;;;;;26.18;69.81;100730.75;4957238;28;8878;-73
2021/08/12 03:00:57;;;;;;;;;45.25;38.75;;;;;26.20;70.55;100739.63;4958016;28;8853;-73
2021/08/12 03:03:56;;;;;;;;;54.67;45.00;;;;;26.24;70.02;100744.00;4954977;28;8870;-74
2021/08/12 03:06:57;;;;;;;;;62.25;47.75;;;;;26.15;70.08;100752.28;4956407;28;8874;-73
2021/08/12 03:09:53;;;;;;;;;63.50;50.25;;;;;26.19;70.34;100758.66;4955795;28;8986;-73
2021/08/12 03:12:22;;;;;;;;;71.25;55.00;;;;;26.09;70.78;100765.34;4957596;28;8879;-73
2021/08/12 03:15:07;;;;;;;;;78.50;68.50;;;;;26.18;70.48;100759.91;4970260;28;8913;-73
2021/08/12 03:18:03;;;;;;;;;72.75;59.00;;;;;26.19;70.70;100764.34;4955040;28;8874;-72
2021/08/12 03:21:14;;;;;;;;;80.00;73.50;;;;;26.32;70.18;100762.44;4956650;28;8962;-74
2021/08/12 03:24:10;;;;;;;;;72.50;55.50;;;;;26.30;70.27;100772.59;4957017;28;8926;-72
2021/08/12 03:26:53;;;;;;;;;76.50;69.00;;;;;26.29;70.55;100774.63;4956731;28;8868;-74
2021/08/12 03:29:54;;;;;;;;;80.33;71.00;;;;;26.36;70.18;100779.34;4951017;28;8870;-72
2021/08/12 03:32:50;;;;;;;;;89.00;73.33;;;;;26.34;70.44;100776.97;4937895;29;9078;-73
2021/08/12 03:35:45;;;;;;;;;89.67;77.67;;;;;26.40;70.51;100768.78;4937561;29;9471;-74
2021/08/12 03:38:41;;;;;;;;;89.33;80.00;;;;;26.33;70.45;100780.25;4938048;29;9353;-73
2021/08/12 03:41:37;;;;;;;;;93.25;82.25;;;;;26.27;70.52;100784.81;4953661;28;9349;-71
2021/08/12 03:44:32;;;;;;;;;96.00;82.50;;;;;26.34;70.47;100771.28;4956253;28;9878;-73
2021/08/12 03:47:29;;;;;;;;;93.75;79.75;;;;;26.38;70.11;100785.41;4956644;28;9884;-72
2021/08/12 03:50:25;;;;;;;;;88.00;67.75;;;;;26.45;70.51;100790.13;4955082;28;10815;-73
2021/08/12 03:53:20;;;;;;;;;109.75;90.25;;;;;26.28;70.86;100784.38;4950388;28;9944;-73
2021/08/12 03:55:48;;;;;;;;;73.25;57.50;;;;;26.46;70.41;100791.75;4939562;28;10397;-72
2021/08/12 03:58:44;;;;;;;;;99.50;80.50;;;;;26.57;70.21;100789.47;4954765;28;10507;-75
2021/08/12 04:01:39;;;;;;;;;109.75;85.00;;;;;26.31;70.21;100786.34;4953340;28;9847;-74
2021/08/12 04:04:35;;;;;;;;;116.25;97.75;;;;;26.46;70.28;100795.41;4952314;28;10600;-74
2021/08/12 04:07:31;;;;;;;;;108.50;92.75;;;;;26.38;70.13;100787.41;4952033;28;10215;-74
2021/08/12 04:09:59;;;;;;;;;117.25;93.50;;;;;26.32;70.26;100790.00;4954513;28;10438;-74
2021/08/12 04:12:29;;;;;;;;;107.50;91.75;;;;;26.43;70.24;100793.41;4951129;28;10220;-73
2021/08/12 04:15:24;;;;;;;;;94.00;79.75;;;;;26.34;70.48;100790.34;4952581;28;11097;-74
2021/08/12 04:18:20;;;;;;;;;76.50;62.75;;;;;26.28;70.11;100794.91;4952634;28;9689;-75
2021/08/12 04:21:16;;;;;;;;;94.00;75.67;;;;;26.41;70.45;100795.91;4952347;28;8873;-74
2021/08/12 04:24:12;;;;;;;;;63.50;50.25;;;;;26.44;70.43;100799.88;4944703;28;9307;-74
2021/08/12 04:27:07;;;;;;;;;61.75;49.50;;;;;26.49;69.85;100794.50;4955158;28;8937;-75
2021/08/12 04:30:08;;;;;;;;;55.00;43.50;;;;;26.54;69.71;100796.84;4933791;28;9613;-74
2021/08/12 04:32:36;;;;;;;;;50.00;42.00;;;;;26.45;69.37;100804.31;4954462;28;8872;-73
2021/08/12 04:35:33;;;;;;;;;50.00;40.50;;;;;26.51;69.79;100796.91;4953295;28;8952;-74
2021/08/12 04:38:28;;;;;;;;;40.75;35.00;;;;;26.53;69.36;100794.41;4947237;28;10170;-73
2021/08/12 04:40:57;;;;;;;;;54.25;43.25;;;;;26.63;68.95;100799.06;4954829;28;8877;-74
2021/08/12 04:43:25;;;;;;;;;45.50;36.75;;;;;26.64;68.83;100800.66;4954850;28;8887;-73
2021/08/12 04:46:01;;;;;;;;;47.25;40.00;;;;;26.65;68.32;100798.63;4954162;28;8866;-74
2021/08/12 04:48:31;;;;;;;;;41.60;34.80;;;;;26.66;67.58;100795.34;4952622;28;8867;-75
2021/08/12 04:51:29;;;;;;;;;45.25;37.75;;;;;26.68;67.90;100806.25;4953284;28;8868;-73
2021/08/12 04:54:25;;;;;;;;;46.80;38.20;;;;;26.58;67.33;100805.25;4951955;28;8844;-73
2021/08/12 04:57:21;;;;;;;;;41.80;33.60;;;;;26.61;67.90;100807.22;4952797;28;8855;-73
2021/08/12 05:00:17;;;;;;;;;46.60;39.00;;;;;26.47;67.67;100804.69;4951803;28;8851;-73
2021/08/12 05:03:13;;;;;;;;;48.40;38.00;;;;;26.50;67.58;100818.78;4952351;28;8874;-73
2021/08/12 05:05:43;;;;;;;;;41.25;34.25;;;;;26.61;68.05;100821.41;4946282;28;8859;-73
2021/08/12 05:08:40;;;;;;;;;52.25;43.50;;;;;26.74;67.36;100822.31;4952962;28;8862;-73
2021/08/12 05:11:41;;;;;;;;;56.50;44.75;;;;;26.74;67.60;100832.88;4951119;28;8856;-74
2021/08/12 05:14:38;;;;;;;;;53.75;42.25;;;;;26.63;68.03;100821.75;4942375;28;8866;-75
2021/08/12 05:17:33;;;;;;;;;53.75;44.50;;;;;26.72;66.68;100830.47;4941151;28;8870;-75
2021/08/12 05:20:29;;;;;;;;;49.50;41.50;;;;;26.85;65.58;100831.41;4945435;28;8886;-74
2021/08/12 05:22:56;;;;;;;;;50.00;41.00;;;;;26.85;65.70;100825.72;4955467;28;8867;-75
2021/08/12 05:25:53;;;;;;;;;50.75;41.50;;;;;26.99;65.34;100827.44;4950823;28;8863;-74
2021/08/12 05:28:48;;;;;;;;;44.20;36.60;;;;;27.03;65.07;100824.50;4952823;28;9000;-73
2021/08/12 05:31:44;;;;;;;;;43.20;36.60;;;;;27.18;65.06;100837.16;4950052;28;8981;-73
2021/08/12 05:34:40;;;;;;;;;40.20;34.80;;;;;27.18;65.17;100845.69;4944357;29;8840;-74
2021/08/12 05:37:35;;;;;;;;;42.20;35.40;;;;;27.39;64.52;100845.16;4953736;29;8863;-73
2021/08/12 05:40:31;;;;;;;;;41.60;32.80;;;;;27.51;64.05;100842.84;4950842;28;8870;-74
2021/08/12 05:43:28;;;;;;;;;31.40;28.40;;;;;27.45;63.75;100842.56;4951579;29;8859;-73
2021/08/12 05:46:24;;;;;;;;;44.20;36.00;;;;;27.39;64.47;100842.34;4953123;28;9656;-72
2021/08/12 05:48:54;;;;;;;;;60.50;48.50;;;;;27.39;64.17;100850.84;4942381;29;8859;-74
2021/08/12 05:51:27;;;;;;;;;81.33;77.33;;;;;27.44;63.92;100849.50;4941678;29;8889;-72
2021/08/12 05:54:22;;;;;;;;;98.00;90.25;;;;;27.50;64.09;100844.91;4950490;29;9566;-74
2021/08/12 05:57:18;;;;;;;;;65.00;52.75;;;;;27.39;63.75;100850.06;4953420;29;11265;-71
2021/08/12 06:00:13;;;;;;;;;60.00;47.75;;;;;27.01;64.03;100849.72;4953287;29;8863;-73
2021/08/12 06:03:15;;;;;;;;;76.33;70.33;;;;;27.35;64.61;100855.00;4950260;29;8905;-73
2021/08/12 06:06:11;;;;;;;;;74.75;66.50;;;;;27.52;63.99;100850.13;4951143;29;9519;-72
2021/08/12 06:09:06;;;;;;;;;60.50;49.00;;;;;27.42;63.22;100849.16;4949673;28;8850;-73
2021/08/12 06:11:35;;;;;;;;;59.75;49.00;;;;;27.57;64.03;100850.41;4953941;29;8866;-74
2021/08/12 06:14:31;;;;;;;;;51.50;41.25;;;;;27.64;63.29;100844.53;4925186;29;9021;-75
2021/08/12 06:17:26;;;;;;;;;58.75;47.00;;;;;27.56;62.81;100848.81;4934175;29;8852;-74
2021/08/12 06:20:22;;;;;;;;;61.75;49.25;;;;;27.44;63.54;100847.47;4934966;29;8855;-74
2021/08/12 06:22:52;;;;;;;;;62.50;49.00;;;;;27.60;63.26;100848.69;4944693;28;8865;-74
2021/08/12 06:25:49;;;;;;;;;64.75;50.00;;;;;27.44;62.52;100855.97;4955773;28;8947;-71
2021/08/12 06:28:46;;;;;;;;;60.00;47.50;;;;;27.54;62.82;100851.31;4956650;28;8845;-74
2021/08/12 06:31:41;;;;;;;;;55.25;46.25;;;;;27.30;64.20;100847.03;4956948;28;8853;-74
2021/08/12 06:34:37;;;;;;;;;61.25;45.50;;;;;27.52;63.96;100850.91;4957365;28;8875;-75
2021/08/12 06:37:46;;;;;;;;;56.75;44.50;;;;;27.76;62.90;100845.91;4957301;28;8903;-74
2021/08/12 06:40:43;;;;;;;;;49.20;40.60;;;;;27.98;62.57;100840.41;4957705;28;8994;-74
2021/08/12 06:43:14;;;;;;;;;50.20;42.20;;;;;27.96;63.09;100843.72;4957683;28;8853;-74
2021/08/12 06:45:55;;;;;;;;;31.20;30.20;;;;;27.97;61.24;100853.03;4943197;28;8873;-75
2021/08/12 06:48:50;;;;;;;;;34.00;30.80;;;;;28.11;61.48;100849.81;4955447;28;8888;-73
2021/08/12 06:51:30;;;;;;;;;41.20;34.60;;;;;28.19;60.62;100845.53;4957119;28;8884;-73
2021/08/12 06:54:27;;;;;;;;;36.40;31.80;;;;;28.48;60.28;100844.75;4956556;28;8928;-74
2021/08/12 06:56:55;;;;;;;;;41.60;35.20;;;;;28.51;60.17;100856.00;4957451;28;8868;-73
2021/08/12 06:59:30;;;;;;;;;39.80;33.00;;;;;28.59;59.99;100852.97;4957383;28;8872;-74
2021/08/12 07:01:57;;;;;;;;;46.00;38.20;;;;;28.75;59.24;100842.28;4940511;28;9423;-74
2021/08/12 07:04:26;;;;;;;;;45.40;38.40;;;;;28.95;59.81;100844.97;4957316;28;9611;-75
2021/08/12 07:07:23;;;;;;;;;40.80;33.40;;;;;29.25;58.89;100848.53;4957958;28;8863;-76
2021/08/12 07:10:21;;;;;;;;;39.80;32.60;;;;;29.32;58.04;100846.25;4956706;28;8888;-75
2021/08/12 07:12:59;;;;;;;;;55.80;44.60;;;;;29.36;57.81;100846.09;4957473;28;8869;-74
2021/08/12 07:15:55;;;;;;;;;60.20;47.20;;;;;29.50;57.66;100844.88;4943809;28;8872;-73
2021/08/12 07:18:50;;;;;;;;;49.60;38.80;;;;;29.59;56.24;100845.75;4956042;28;8861;-74
2021/08/12 07:21:46;;;;;;;;;48.80;39.20;;;;;29.77;55.07;100841.53;4955856;28;8853;-74
2021/08/12 07:24:42;;;;;;;;;50.40;41.00;;;;;29.88;55.60;100841.94;4957282;28;8974;-75
2021/08/12 07:27:37;;;;;;;;;37.00;32.40;;;;;29.98;54.74;100832.22;4943063;28;8864;-74
2021/08/12 07:30:34;;;;;;;;;38.00;32.40;;;;;29.98;54.39;100837.09;4954879;28;8845;-75
2021/08/12 07:33:23;;;;;;;;;41.60;35.60;;;;;30.01;54.33;100833.34;4956928;28;8883;-76
2021/08/12 07:36:20;;;;;;;;;38.60;33.60;;;;;30.18;54.06;100844.13;4955075;28;8864;-75
2021/08/12 07:39:08;;;;;;;;;35.00;30.20;;;;;30.39;54.98;100842.56;4942114;28;8856;-74
2021/08/12 07:42:04;;;;;;;;;27.40;27.40;;;;;30.26;53.88;100838.16;4942842;28;8884;-74
2021/08/12 07:45:02;;;;;;;;;29.20;27.00;;;;;30.34;52.71;100828.88;4955937;28;9806;-75
2021/08/12 07:47:58;;;;;;;;;23.20;23.00;;;;;30.41;53.13;100834.31;4955731;28;8857;-75
2021/08/12 07:50:54;;;;;;;;;22.20;21.60;;;;;30.61;52.59;100842.56;4955457;28;8947;-74
2021/08/12 07:53:53;;;;;;;;;26.20;26.00;;;;;30.89;52.19;100848.44;4956402;28;8881;-74
2021/08/12 07:56:48;;;;;;;;;30.20;28.80;;;;;30.73;51.04;100853.09;4955352;28;8837;-74
2021/08/12 07:59:44;;;;;;;;;23.60;23.60;;;;;30.62;51.64;100849.84;4956720;28;9595;-75
2021/08/12 08:02:44;;;;;;;;;18.60;18.60;;;;;30.87;51.03;100862.38;4955267;28;8872;-73
2021/08/12 08:05:40;;;;;;;;;23.00;21.00;;;;;30.73;49.26;100858.81;4955297;28;8893;-75
2021/08/12 08:08:28;;;;;;;;;25.40;24.20;;;;;30.98;49.73;100872.13;4941413;28;8865;-75
2021/08/12 08:11:24;;;;;;;;;15.80;15.40;;;;;30.78;50.00;100868.06;4955515;28;8861;-76
2021/08/12 08:14:19;;;;;;;;;17.40;17.40;;;;;30.88;49.96;100883.97;4956177;28;8873;-75
2021/08/12 08:17:16;;;;;;;;;17.20;16.00;;;;;30.73;49.91;100875.94;4953935;28;8884;-73
2021/08/12 08:20:13;;;;;;;;;17.40;17.40;;;;;31.08;50.32;100887.25;4937780;28;8853;-74
2021/08/12 08:23:11;;;;;;;;;20.60;20.60;;;;;31.36;49.17;100890.25;4953649;28;8838;-74
2021/08/12 08:26:07;;;;;;;;;14.60;14.00;;;;;31.35;48.19;100886.59;4950675;28;8872;-74
2021/08/12 08:28:35;;;;;;;;;14.60;14.60;;;;;31.71;48.97;100894.50;4954415;28;8882;-74
2021/08/12 08:31:04;;;;;;;;;14.00;13.80;;;;;31.44;47.71;100900.94;4954383;28;8882;-73
2021/08/12 08:33:59;;;;;;;;;9.40;9.40;;;;;31.58;47.58;100907.31;4923598;29;8883;-75
2021/08/12 08:36:57;;;;;;;;;20.00;19.60;;;;;31.52;46.81;100904.31;4947961;28;8873;-75
2021/08/12 08:39:55;;;;;;;;;16.60;16.60;;;;;31.88;46.58;100903.63;4954724;28;8869;-74
2021/08/12 08:42:50;;;;;;;;;12.40;12.40;;;;;31.75;44.55;100902.94;4947530;28;8924;-75
2021/08/12 08:45:47;;;;;;;;;10.20;10.20;;;;;31.87;43.92;100912.66;4949650;28;8908;-75
2021/08/12 08:48:45;;;;;;;;;18.80;18.80;;;;;31.84;44.02;100905.06;4936750;28;9077;-75
2021/08/12 08:51:41;;;;;;;;;12.00;12.00;;;;;31.86;43.66;100911.09;4954581;28;8892;-75
2021/08/12 08:54:11;;;;;;;;;17.80;17.80;;;;;31.84;43.79;100900.13;4955495;28;8900;-75
2021/08/12 08:57:07;;;;;;;;;12.00;11.00;;;;;31.99;42.20;100911.75;4954272;28;9683;-74
2021/08/12 08:59:50;;;;;;;;;19.20;18.80;;;;;31.64;42.31;100909.09;4955380;28;8897;-75
2021/08/12 09:02:34;;;;;;;;;13.80;13.80;;;;;31.86;42.63;100903.31;4954844;28;8892;-74
2021/08/12 09:05:29;;;;;;;;;17.00;16.40;;;;;31.97;40.28;100911.41;4954235;28;9436;-74
2021/08/12 09:08:26;;;;;;;;;17.80;16.80;;;;;32.03;41.53;100916.03;4954359;28;8991;-73
2021/08/12 09:11:23;;;;;;;;;9.80;9.80;;;;;32.05;40.69;100912.69;4954245;28;8873;-75
2021/08/12 09:14:41;;;;;;;;;11.40;11.20;;;;;32.27;40.77;100919.06;4954430;28;8869;-75
2021/08/12 09:17:17;;;;;;;;;11.60;11.60;;;;;32.41;39.49;100920.53;4954792;28;8996;-75
2021/08/12 09:20:00;;;;;;;;;11.20;11.00;;;;;32.35;40.71;100925.31;4955293;28;9638;-74
2021/08/12 09:22:58;;;;;;;;;14.80;13.60;;;;;32.64;41.26;100913.38;4954099;28;8877;-75
2021/08/12 09:25:45;;;;;;;;;15.80;15.80;;;;;32.17;39.23;100922.41;4954955;28;8955;-75
2021/08/12 09:28:29;;;;;;;;;18.00;18.00;;;;;32.10;40.32;100917.78;4954949;28;8876;-73
2021/08/12 09:31:30;;;;;;;;;30.00;27.40;;;;;32.35;40.69;100919.59;4954869;28;8853;-74
2021/08/12 09:34:44;;;;;;;;;20.40;19.20;;;;;32.34;41.19;100918.00;4954837;28;8853;-74
2021/08/12 09:37:14;;;;;;;;;15.00;15.00;;;;;32.56;41.03;100917.84;4956860;29;8877;-73
2021/08/12 09:40:12;;;;;;;;;10.20;10.20;;;;;32.31;38.94;100922.63;4954272;29;8901;-76
2021/08/12 09:43:10;;;;;;;;;9.80;9.80;;;;;32.42;39.85;100924.19;4953685;29;8959;-75
2021/08/12 09:46:07;;;;;;;;;13.00;12.40;;;;;32.31;40.14;100925.47;4953837;29;8864;-75
2021/08/12 09:49:03;;;;;;;;;16.00;16.00;;;;;32.50;41.18;100931.97;4953735;29;8845;-75
2021/08/12 09:52:21;;;;;;;;;14.80;14.80;;;;;32.64;40.51;100930.56;4953727;28;8865;-72
2021/08/12 09:55:01;;;;;;;;;18.80;18.60;;;;;32.39;39.35;100934.53;4955169;29;8868;-72
2021/08/12 09:57:46;;;;;;;;;16.20;16.00;;;;;32.28;40.07;100932.13;4954880;29;8865;-75
2021/08/12 10:00:46;;;;;;;;;15.60;15.40;;;;;32.40;40.08;100936.13;4956477;28;8860;-74
2021/08/12 10:03:42;;;;;;;;;15.60;15.60;;;;;32.71;40.37;100929.44;4955838;28;8932;-74
2021/08/12 10:06:37;;;;;;;;;20.80;20.40;;;;;32.63;39.56;100928.97;4961934;28;8880;-73
2021/08/12 10:09:43;;;;;;;;;4.80;4.80;;;;;32.64;39.57;100925.63;4957320;28;8915;-73
2021/08/12 10:12:48;;;;;;;;;11.40;11.40;;;;;32.72;38.83;100931.81;4957384;28;8869;-73
2021/08/12 10:15:49;;;;;;;;;13.60;13.60;;;;;33.19;38.81;100927.59;4960012;28;8873;-73
2021/08/12 10:18:47;;;;;;;;;13.80;13.80;;;;;33.38;37.95;100931.22;4956703;28;8875;-72
2021/08/12 10:21:44;;;;;;;;;10.80;10.80;;;;;33.67;36.79;100930.63;4956439;28;9745;-73
2021/08/12 10:24:40;;;;;;;;;12.80;12.40;;;;;33.51;35.98;100928.13;4956781;28;8919;-74
2021/08/12 10:27:29;;;;;;;;;12.00;12.00;;;;;33.57;37.10;100947.06;4955324;28;8861;-73
2021/08/12 10:30:26;;;;;;;;;13.60;13.60;;;;;33.46;36.72;100941.88;4956929;28;8928;-73
2021/08/12 10:33:23;;;;;;;;;15.80;15.80;;;;;33.31;36.55;100945.88;4956665;28;8861;-72
2021/08/12 10:35:52;;;;;;;;;14.20;14.20;;;;;33.35;37.03;100946.47;4957919;28;8861;-73
2021/08/12 10:38:43;;;;;;;;;15.00;13.80;;;;;33.42;36.58;100938.38;4957388;28;8893;-73
2021/08/12 10:41:15;;;;;;;;;20.60;20.60;;;;;33.69;36.63;100943.19;4958315;28;8896;-74
2021/08/12 10:44:14;;;;;;;;;26.80;26.60;;;;;33.80;36.61;100934.03;4956820;28;9007;-73
2021/08/12 10:47:41;;;;;;;;;14.00;13.00;;;;;33.81;35.50;100929.88;4956576;28;8865;-72
2021/08/12 10:50:38;;;;;;;;;28.40;28.00;;;;;33.83;35.50;100938.03;4957517;28;8949;-71
2021/08/12 10:53:14;;;;;;;;;11.60;11.60;;;;;33.84;35.12;100937.53;4957312;28;8881;-72
2021/08/12 10:56:18;;;;;;;;;16.00;16.00;;;;;33.79;35.38;100941.06;4957284;28;8980;-73
2021/08/12 10:58:49;;;;;;;;;19.60;19.60;;;;;33.81;35.45;100937.69;4957496;28;8857;-74
2021/08/12 11:01:45;;;;;;;;;13.00;11.80;;;;;33.51;34.48;100931.81;4943554;28;8895;-72
2021/08/12 11:04:52;;;;;;;;;16.80;16.80;;;;;33.60;35.19;100937.50;4955830;28;8888;-74
2021/08/12 11:07:50;;;;;;;;;17.00;16.00;;;;;33.92;34.36;100946.59;4956749;28;8868;-72
2021/08/12 11:10:45;;;;;;;;;17.00;16.20;;;;;33.82;33.49;100948.72;4955520;28;8861;-74
2021/08/12 11:13:41;;;;;;;;;21.40;20.40;;;;;33.64;33.88;100948.78;4957418;28;8936;-72
2021/08/12 11:16:45;;;;;;;;;15.60;15.00;;;;;34.03;33.40;100940.31;4956220;28;8947;-72
2021/08/12 11:19:41;;;;;;;;;15.80;15.80;;;;;34.47;34.34;100947.03;4956658;28;8881;-73
2021/08/12 11:22:28;;;;;;;;;16.40;16.40;;;;;33.90;32.62;100944.22;4958770;28;8864;-72
2021/08/12 11:25:54;;;;;;;;;12.00;12.00;;;;;33.77;31.31;100934.22;4956317;28;8861;-73
2021/08/12 11:28:41;;;;;;;;;13.40;12.80;;;;;33.71;32.20;100934.09;4957160;28;8884;-73
2021/08/12 11:31:36;;;;;;;;;10.60;10.60;;;;;33.89;32.66;100931.16;4955824;28;8876;-73
2021/08/12 11:34:58;;;;;;;;;15.20;15.20;;;;;34.13;32.71;100936.13;4960008;28;8950;-73
2021/08/12 11:37:55;;;;;;;;;19.80;19.60;;;;;33.64;34.75;100938.09;4936173;29;8878;-71
2021/08/12 11:40:54;;;;;;;;;15.20;15.20;;;;;34.49;34.10;100935.03;4936770;29;8902;-72
2021/08/12 11:43:23;;;;;;;;;14.00;14.00;;;;;34.27;33.88;100932.47;4937234;29;8974;-72
2021/08/12 11:46:20;;;;;;;;;11.80;11.80;;;;;34.01;34.94;100935.84;4936062;29;8860;-73
2021/08/12 11:49:18;;;;;;;;;11.00;11.00;;;;;34.12;35.23;100948.84;4939938;28;8843;-72
2021/08/12 11:52:21;;;;;;;;;12.20;12.20;;;;;34.46;34.21;100959.78;4935569;28;8882;-73
2021/08/12 11:55:23;;;;;;;;;12.20;12.20;;;;;34.16;34.31;100964.63;4953936;28;9746;-73
2021/08/12 11:57:58;;;;;;;;;11.00;11.00;;;;;34.07;33.64;100955.28;4954441;28;8868;-73
2021/08/12 12:00:54;;;;;;;;;19.20;19.20;;;;;33.66;35.10;100949.91;4952812;28;8876;-72
2021/08/12 12:04:08;;;;;;;;;16.60;16.20;;;;;33.80;35.71;100950.47;4954173;28;8886;-72
2021/08/12 12:07:04;;;;;;;;;17.40;17.00;;;;;33.43;35.61;100956.34;4953866;28;8974;-72
2021/08/12 12:10:00;;;;;;;;;17.40;17.40;;;;;33.49;36.42;100960.16;4953563;28;8874;-73
2021/08/12 12:12:28;;;;;;;;;16.80;16.80;;;;;33.43;36.13;100964.97;4957164;28;8880;-73
2021/08/12 12:15:40;;;;;;;;;16.80;16.80;;;;;33.37;34.83;100961.16;4947131;28;8998;-72
2021/08/12 12:18:41;;;;;;;;;14.80;14.80;;;;;33.52;36.50;100969.88;4950775;28;8838;-72
2021/08/12 12:21:13;;;;;;;;;13.40;13.40;;;;;33.26;36.33;100969.44;4951704;28;8875;-73
2021/08/12 12:24:08;;;;;;;;;13.40;13.40;;;;;32.86;35.43;100962.69;4953624;28;8878;-74
2021/08/12 12:26:41;;;;;;;;;12.00;12.00;;;;;32.85;36.78;100969.69;4955315;28;8859;-72
2021/08/12 12:29:12;;;;;;;;;15.20;15.20;;;;;32.99;37.43;100970.31;4955808;28;8858;-73
2021/08/12 12:32:14;;;;;;;;;14.20;14.20;;;;;33.05;36.60;100971.25;4954602;28;9037;-72
2021/08/12 12:35:11;;;;;;;;;10.20;10.20;;;;;33.17;35.82;100973.13;4935841;29;8863;-75
2021/08/12 12:37:49;;;;;;;;;9.20;9.20;;;;;33.11;34.34;100975.84;4936270;29;8874;-75
2021/08/12 12:40:45;;;;;;;;;11.00;11.00;;;;;33.26;34.46;100975.19;4935982;29;8895;-73
2021/08/12 12:43:40;;;;;;;;;11.80;11.80;;;;;33.55;34.89;100971.78;4934177;29;8883;-72
2021/08/12 12:46:08;;;;;;;;;10.60;10.60;;;;;33.60;34.49;100982.59;4919380;29;8856;-73
2021/08/12 12:49:23;;;;;;;;;13.00;13.00;;;;;33.43;34.15;100979.28;4936624;28;8906;-74
2021/08/12 12:52:18;;;;;;;;;11.60;11.60;;;;;33.12;33.31;100982.38;4934798;29;8949;-73
2021/08/12 12:55:19;;;;;;;;;14.60;13.40;;;;;33.64;33.96;100991.81;4943974;28;8873;-73
2021/08/12 12:58:37;;;;;;;;;12.40;12.40;;;;;33.14;32.87;100988.44;4954593;28;8895;-74
2021/08/12 13:01:25;;;;;;;;;14.00;13.60;;;;;33.20;33.86;100980.75;4959872;28;9645;-75
2021/08/12 13:04:20;;;;;;;;;9.60;9.60;;;;;32.94;33.03;100982.41;4954799;28;8965;-74
2021/08/12 13:07:20;;;;;;;;;14.80;14.20;;;;;33.12;33.06;100980.31;4970131;28;8873;-71
2021/08/12 13:10:19;;;;;;;;;14.00;13.80;;;;;33.44;33.33;100978.81;4966756;28;8878;-74
2021/08/12 13:13:04;;;;;;;;;14.80;14.80;;;;;33.77;34.00;100983.78;4940577;28;8857;-74